Nearby METAR Reports

 

EDNY - Friedrichshafen, Germany
Distance from station: ONO 32km
aktuell: 24.01.2018 05:50
geschlossene Wolkendecke
geschlossene Wolkendecke
 Wind von calm
Wind: Windstill
Temperatur: 4°C
Taupunkt: 2°C
Luftfeuchte: 87%
Luftdruck: 1027 hPa
Clouds: geschlossene Wolkendecke
Visibility: 10 km
Cloud details: Few Clouds 1067 m
geschlossene Wolkendecke 2499 m
2018/01/24 04:50 EDNY 240450Z 00000KT 9999 FEW035 OVC082 04/02 Q1027
LSZR - Rheineck/Altenrh, Switzerland
Distance from station: OSO 37km
aktuell: 24.01.2018 05:50
geschlossene Wolkendecke
geschlossene Wolkendecke
 Wind von SW
Wind: SW 6 km/h
Temperatur: 4°C
Taupunkt: 3°C
Luftfeuchte: 93%
Luftdruck: 1027 hPa
Clouds: geschlossene Wolkendecke
Visibility: 10 km
Cloud details: geschlossene Wolkendecke 2438 m
2018/01/24 04:50 LSZR 240450Z AUTO 22003KT 9999 OVC080 04/03 Q1027
LSMD - Dubendorf, Switzerland
Distance from station: SW 40km
aktuell: 24.01.2018 05:50
Few Clouds
Few Clouds
 Wind von OSO
Wind: OSO 7 km/h
Temperatur: 2°C
gefühlte Temperatur: 0°C
Taupunkt: 0°C
Luftfeuchte: 87%
Luftdruck: 1027 hPa
Clouds: Few Clouds
Visibility: 16 miles
Cloud details: Few Clouds 3048 m
2018/01/24 04:50 LSMD 240450Z AUTO 11004KT 080V140 9999NDV FEW100 02/M00 Q1027 RMK
 
LSZH - Zurich-Kloten (a, Switzerland
Distance from station: WSW 44km
aktuell: 24.01.2018 05:50
stark bewölkt
stark bewölkt
 Wind von SSO
Wind: SSO 7 km/h
Temperatur: 2°C
gefühlte Temperatur: 0°C
Taupunkt: 1°C
Luftfeuchte: 93%
Luftdruck: 1027 hPa
Clouds: stark bewölkt
Visibility: 10 km
Cloud details: stark bewölkt 610 m
2018/01/24 04:50 LSZH 240450Z 16004KT 110V180 9999 BKN020 02/01 Q1027 NOSIG
LOIH - Hohenems-Dornbir, Austria
Distance from station: OSO 51km
aktuell: 31.10.2016 17:00
NOT Current
geschlossene Wolkendecke
geschlossene Wolkendecke
 Wind von calm
Wind: Windstill
Temperatur: 10°C
Taupunkt: 9°C
Luftfeuchte: 94%
Luftdruck: 1026 hPa
Clouds: geschlossene Wolkendecke
Cloud details: geschlossene Wolkendecke 305 m
2016/10/31 16:00 LOIH 311600Z 00000KT 10KM OVC010ST 10/09 Q1026 RMK OVC
LSME - Emmen, Switzerland
Distance from station: SW 82km
aktuell: 24.01.2018 05:50
Mist, klar
Mist, klar
 Wind von calm
Wind: Windstill
Temperatur: 0°C
Taupunkt: 0°C
Luftfeuchte: 100%
Luftdruck: 1028 hPa
Zusammenfassung: Mist
Clouds: klar
Visibility: 7 miles
2018/01/24 04:50 LSME 240450Z AUTO 00000KT 4200NDV BR NCD 00/M00 Q1028 RMK
 
LSZC - Buochs, Switzerland
Distance from station: SW 89km
aktuell: 24.01.2018 05:50
klar
klar
 Wind von varies
Wind: varies 4 km/h
Temperatur: 1°C
Taupunkt: 1°C
Luftfeuchte: 100%
Luftdruck: 1027 hPa
Zusammenfassung: klar
Visibility: greater than 10 km
2018/01/24 04:50 LSZC 240450Z AUTO VRB02KT CAVOK 01/01 Q1027
ETHL - Laupheim (ger-Ar, Germany
Distance from station: NO 92km
aktuell: 24.01.2018 05:20
geschlossene Wolkendecke
geschlossene Wolkendecke
 Wind von WSW
Wind: WSW 11 km/h
Temperatur: 5°C
gefühlte Temperatur: 2°C
Taupunkt: 3°C
Luftfeuchte: 87%
Luftdruck: 1026 hPa
Clouds: geschlossene Wolkendecke
Visibility: 10 km
Cloud details: Few Clouds 1067 m
geschlossene Wolkendecke 1829 m
2018/01/24 04:20 ETHL 240420Z 24006KT 9999 FEW035 OVC060 05/03 Q1026 BLU
EDJA - Memmingen Allgau, Germany
Distance from station: ONO 95km
aktuell: 24.01.2018 05:50
sehr leichter Niederschlag, stark bewölkt
sehr leichter Niederschlag, stark bewölkt
 Wind von SSW
Wind: SSW 9 km/h
Temperatur: 3°C
gefühlte Temperatur: 0°C
Taupunkt: 2°C
Luftfeuchte: 93%
Luftdruck: 1026 hPa
Zusammenfassung: sehr leichter Niederschlag
Clouds: stark bewölkt
Visibility: 10 km
Cloud details: teilweise bewölkt 1067 m
stark bewölkt 1676 m
2018/01/24 04:50 EDJA 240450Z 21005KT 9999 -RA SCT035 BKN055 03/02 Q1026
 
LSMA - Alpnach, Switzerland
Distance from station: SW 95km
aktuell: 24.01.2018 05:50
klar
klar
 Wind von varies
Wind: varies 2 km/h
Temperatur: 1°C
Taupunkt: 1°C
Luftfeuchte: 100%
Luftdruck: 1028 hPa
Clouds: klar
Visibility: 8 miles
2018/01/24 04:50 LSMA 240450Z AUTO VRB01KT 5000NDV NCD 01/01 Q1028 RMK